createdAt,value
2017-04-03T00:00:59.449Z,999.92
2017-04-03T00:02:09.815Z,999.92
2017-04-03T00:03:19.847Z,999.92
2017-04-03T00:04:30.244Z,999.92
2017-04-03T00:05:40.577Z,999.91
2017-04-03T00:06:50.310Z,999.93
2017-04-03T00:08:00.667Z,999.91
2017-04-03T00:09:11.013Z,999.88
2017-04-03T00:10:21.051Z,999.91
2017-04-03T00:11:31.440Z,999.9
2017-04-03T00:12:41.798Z,999.93
2017-04-03T00:13:51.511Z,999.94
2017-04-03T00:15:01.847Z,999.93
2017-04-03T00:16:12.187Z,999.95
2017-04-03T00:17:22.525Z,999.97
2017-04-03T00:18:32.856Z,999.98
2017-04-03T00:19:43.264Z,999.97
2017-04-03T00:20:52.979Z,999.97
2017-04-03T00:22:02.709Z,999.97
2017-04-03T00:23:13.089Z,999.98
2017-04-03T00:24:23.421Z,999.94
2017-04-03T00:25:33.759Z,999.94
2017-04-03T00:26:43.794Z,999.93
2017-04-03T00:27:54.123Z,999.88
2017-04-03T00:29:04.448Z,999.9
2017-04-03T00:30:14.784Z,999.91
2017-04-03T00:31:24.190Z,999.87
2017-04-03T00:32:34.534Z,999.92
2017-04-03T00:33:44.901Z,999.9
2017-04-03T00:34:55.241Z,999.93
2017-04-03T00:36:05.582Z,999.92
2017-04-03T00:37:15.919Z,999.93
2017-04-03T00:38:26.255Z,999.91
2017-04-03T00:39:36.603Z,999.93
2017-04-03T00:40:46.936Z,999.9
2017-04-03T00:41:56.963Z,999.87
2017-04-03T00:43:07.009Z,999.92
2017-04-03T00:44:17.356Z,999.93
2017-04-03T00:45:27.687Z,999.94
2017-04-03T00:46:37.713Z,999.95
2017-04-03T00:47:48.053Z,999.98
2017-04-03T00:48:58.404Z,999.99
2017-04-03T00:50:08.735Z,999.94
2017-04-03T00:51:19.101Z,1000
2017-04-03T00:52:29.432Z,999.96
2017-04-03T00:53:39.460Z,1000.01
2017-04-03T00:54:49.792Z,999.96
2017-04-03T00:56:00.143Z,999.98
2017-04-03T00:57:10.178Z,999.99
2017-04-03T00:58:20.521Z,1000.01
2017-04-03T00:59:30.853Z,1000.03
2017-04-03T01:00:41.199Z,1000.01
2017-04-03T01:01:51.538Z,999.99
2017-04-03T01:03:01.878Z,1000.03
2017-04-03T01:04:12.223Z,1000
2017-04-03T01:05:22.240Z,1000.04
2017-04-03T01:06:32.594Z,1000.02
2017-04-03T01:07:42.943Z,1000.07
2017-04-03T01:08:52.986Z,1000.05
2017-04-03T01:10:03.002Z,1000.12
2017-04-03T01:11:13.354Z,1000.07
2017-04-03T01:12:23.724Z,1000.11
2017-04-03T01:13:33.750Z,1000.15
2017-04-03T01:14:44.084Z,1000.16
2017-04-03T01:15:54.099Z,1000.14
2017-04-03T01:17:04.147Z,1000.13
2017-04-03T01:18:14.481Z,1000.14
2017-04-03T01:19:24.497Z,1000.16
2017-04-03T01:20:34.527Z,1000.2
2017-04-03T01:21:44.556Z,1000.18
2017-04-03T01:22:54.626Z,1000.19
2017-04-03T01:24:04.976Z,1000.22
2017-04-03T01:25:15.312Z,1000.2
2017-04-03T01:26:25.033Z,1000.22
2017-04-03T01:27:35.073Z,1000.22
2017-04-03T01:28:45.100Z,1000.24
2017-04-03T01:29:55.137Z,1000.21
2017-04-03T01:31:05.158Z,1000.23
2017-04-03T01:32:15.189Z,1000.25
2017-04-03T01:33:25.529Z,1000.24
2017-04-03T01:34:35.877Z,1000.25
2017-04-03T01:35:46.247Z,1000.26
2017-04-03T01:36:56.584Z,1000.3
2017-04-03T01:38:06.921Z,1000.3
2017-04-03T01:39:17.262Z,1000.3
2017-04-03T01:40:27.319Z,1000.34
2017-04-03T01:41:37.348Z,1000.34
2017-04-03T01:42:47.911Z,1000.37
2017-04-03T01:43:58.249Z,1000.43
2017-04-03T01:45:08.588Z,1000.45
2017-04-03T01:46:18.919Z,1000.47
2017-04-03T01:47:28.943Z,1000.49
2017-04-03T01:48:39.284Z,1000.45
2017-04-03T01:49:49.619Z,1000.43
2017-04-03T01:50:59.978Z,1000.47
2017-04-03T01:52:10.323Z,1000.46
2017-04-03T01:53:20.669Z,1000.46
2017-04-03T01:54:30.693Z,1000.48
2017-04-03T01:55:40.725Z,1000.49
2017-04-03T01:56:51.076Z,1000.43
2017-04-03T01:58:01.118Z,1000.44
2017-04-03T01:59:11.451Z,1000.44
2017-04-03T02:00:21.791Z,1000.4
2017-04-03T02:01:31.816Z,1000.46
2017-04-03T02:02:42.156Z,1000.47
2017-04-03T02:03:52.491Z,1000.48
2017-04-03T02:05:02.519Z,1000.48
2017-04-03T02:06:12.539Z,1000.52
2017-04-03T02:07:22.876Z,1000.49
2017-04-03T02:08:33.233Z,1000.5
2017-04-03T02:09:43.564Z,1000.5
2017-04-03T02:10:54.147Z,1000.52
2017-04-03T02:12:04.512Z,1000.5
2017-04-03T02:13:14.866Z,1000.54
2017-04-03T02:14:25.226Z,1000.54
2017-04-03T02:15:34.948Z,1000.53
2017-04-03T02:16:45.294Z,1000.54
2017-04-03T02:17:55.306Z,1000.57
2017-04-03T02:19:05.344Z,1000.58
2017-04-03T02:20:15.702Z,1000.61
2017-04-03T02:21:26.028Z,1000.62
2017-04-03T02:22:36.363Z,1000.67
2017-04-03T02:23:46.686Z,1000.66
2017-04-03T02:24:56.723Z,1000.66
2017-04-03T02:26:07.070Z,1000.73
2017-04-03T02:27:17.453Z,1000.78
2017-04-03T02:28:27.782Z,1000.72
2017-04-03T02:29:38.153Z,1000.73
2017-04-03T02:30:48.178Z,1000.77
2017-04-03T02:31:58.209Z,1000.76
2017-04-03T02:33:08.554Z,1000.75
2017-04-03T02:34:18.887Z,1000.79
2017-04-03T02:35:29.223Z,1000.73
2017-04-03T02:36:39.559Z,1000.82
2017-04-03T02:37:49.274Z,1000.78
2017-04-03T02:38:59.602Z,1000.79
2017-04-03T02:40:10.201Z,1000.76
2017-04-03T02:41:20.538Z,1000.75
2017-04-03T02:42:30.561Z,1000.79
2017-04-03T02:43:40.914Z,1000.79
2017-04-03T02:44:50.650Z,1000.78
2017-04-03T02:46:01.000Z,1000.76
2017-04-03T02:47:11.019Z,1000.76
2017-04-03T02:48:21.599Z,1000.77
2017-04-03T02:49:31.939Z,1000.78
2017-04-03T02:50:42.285Z,1000.79
2017-04-03T02:51:52.302Z,1000.8
2017-04-03T02:53:02.641Z,1000.82
2017-04-03T02:54:13.001Z,1000.84
2017-04-03T02:55:23.323Z,1000.86
2017-04-03T02:56:33.666Z,1000.85
2017-04-03T02:57:44.001Z,1000.86
2017-04-03T02:58:54.027Z,1000.82
2017-04-03T03:00:04.060Z,1000.84
2017-04-03T03:01:14.446Z,1000.84
2017-04-03T03:32:13.945Z,1000.87
2017-04-03T03:33:24.268Z,1000.86
2017-04-03T03:34:34.011Z,1000.85
2017-04-03T03:35:44.026Z,1000.88
2017-04-03T03:36:54.361Z,1000.86
2017-04-03T03:38:04.380Z,1000.85
2017-04-03T03:39:14.406Z,1000.84
2017-04-03T03:40:24.738Z,1000.84
2017-04-03T03:41:35.061Z,1000.84
2017-04-03T03:42:45.087Z,1000.91
2017-04-03T03:43:55.112Z,1000.9
2017-04-03T03:45:05.459Z,1000.91
2017-04-03T03:46:15.485Z,1000.92
2017-04-03T03:47:25.830Z,1000.93
2017-04-03T03:48:36.182Z,1000.92
2017-04-03T03:49:46.528Z,1000.94
2017-04-03T03:50:56.555Z,1000.94
2017-04-03T03:52:06.299Z,1000.97
2017-04-03T03:53:16.636Z,1000.94
2017-04-03T03:54:26.641Z,1000.95
2017-04-03T03:55:37.035Z,1000.96
2017-04-03T03:56:47.373Z,1000.97
2017-04-03T03:57:57.708Z,1001.04
2017-04-03T03:59:08.041Z,1001.05
2017-04-03T04:00:18.379Z,1001.08
2017-04-03T04:01:28.719Z,1001.09
2017-04-03T04:02:39.052Z,1001.09
2017-04-03T04:03:49.083Z,1001.1
2017-04-03T04:04:59.452Z,1001.08
2017-04-03T04:06:09.780Z,1001.08
2017-04-03T04:07:20.128Z,1001.11
2017-04-03T04:08:30.480Z,1001.1
2017-04-03T04:09:40.813Z,1001.18
2017-04-03T04:10:51.138Z,1001.16
2017-04-03T04:12:01.476Z,1001.15
2017-04-03T04:13:11.487Z,1001.16
2017-04-03T04:14:21.528Z,1001.16
2017-04-03T04:15:31.869Z,1001.18
2017-04-03T04:16:41.882Z,1001.24
2017-04-03T04:17:51.916Z,1001.21
2017-04-03T04:19:01.946Z,1001.24
2017-04-03T04:20:12.284Z,1001.28
2017-04-03T04:21:22.623Z,1001.29
2017-04-03T04:22:32.967Z,1001.29
2017-04-03T04:23:42.672Z,1001.3
2017-04-03T04:24:52.705Z,1001.27
2017-04-03T04:26:03.047Z,1001.28
2017-04-03T04:27:13.384Z,1001.3
2017-04-03T04:28:23.715Z,1001.31
2017-04-03T04:29:33.772Z,1001.37
2017-04-03T04:30:44.149Z,1001.4
2017-04-03T04:31:54.174Z,1001.4
2017-04-03T04:33:04.512Z,1001.44
2017-04-03T04:34:14.846Z,1001.38
2017-04-03T04:35:24.860Z,1001.44
2017-04-03T04:36:34.885Z,1001.43
2017-04-03T04:37:45.231Z,1001.45
2017-04-03T04:38:55.281Z,1001.46
2017-04-03T04:40:05.632Z,1001.46
2017-04-03T04:41:15.364Z,1001.48
2017-04-03T04:42:25.714Z,1001.5
2017-04-03T04:43:36.077Z,1001.55
2017-04-03T04:44:46.407Z,1001.59
2017-04-03T04:45:56.735Z,1001.65
2017-04-03T04:47:07.072Z,1001.58
2017-04-03T04:48:17.418Z,1001.59
2017-04-03T04:49:27.753Z,1001.63
2017-04-03T04:50:38.106Z,1001.64
2017-04-03T04:51:48.139Z,1001.68
2017-04-03T04:52:58.469Z,1001.7
2017-04-03T04:54:08.500Z,1001.7
2017-04-03T04:55:18.834Z,1001.67
2017-04-03T04:56:29.184Z,1001.69
2017-04-03T04:57:39.538Z,1001.71
2017-04-03T04:58:49.930Z,1001.73
2017-04-03T05:00:00.330Z,1001.78
2017-04-03T05:01:10.671Z,1001.78
2017-04-03T05:02:21.021Z,1001.79
2017-04-03T05:03:30.782Z,1001.81
2017-04-03T05:04:41.104Z,1001.83
2017-04-03T05:05:51.457Z,1001.91
2017-04-03T05:07:01.541Z,1001.95
2017-04-03T05:08:11.559Z,1001.99
2017-04-03T05:09:21.905Z,1002.02
2017-04-03T05:10:32.233Z,1002.07
2017-04-03T05:11:42.297Z,1002.08
2017-04-03T05:12:52.686Z,1002.04
2017-04-03T05:14:03.046Z,1002.12
2017-04-03T05:15:13.398Z,1002.14
2017-04-03T05:16:23.429Z,1002.13
2017-04-03T05:17:33.782Z,1002.05
2017-04-03T05:18:44.127Z,1002
2017-04-03T05:19:54.469Z,1002.01
2017-04-03T05:21:04.796Z,1002.03
2017-04-03T05:22:15.179Z,1002.01
2017-04-03T05:23:25.196Z,1002.05
2017-04-03T05:24:34.915Z,1002.05
2017-04-03T05:25:45.258Z,1002.07
2017-04-03T05:26:55.610Z,1002.07
2017-04-03T05:28:05.943Z,1002.1
2017-04-03T05:29:15.972Z,1002.13
2017-04-03T05:30:26.336Z,1002.14
2017-04-03T05:31:36.375Z,1002.11
2017-04-03T05:32:46.752Z,1002.15
2017-04-03T05:33:56.790Z,1002.17
2017-04-03T05:35:06.887Z,1002.17
2017-04-03T05:36:17.238Z,1002.19
2017-04-03T05:37:27.584Z,1002.17
2017-04-03T05:38:37.933Z,1002.2
2017-04-03T05:39:48.259Z,1002.18
2017-04-03T05:40:58.290Z,1002.18
2017-04-03T05:42:08.323Z,1002.24
2017-04-03T05:43:18.680Z,1002.22
2017-04-03T05:44:29.032Z,1002.22
2017-04-03T05:45:39.369Z,1002.24
2017-04-03T05:46:49.728Z,1002.23
2017-04-03T05:47:59.756Z,1002.2
2017-04-03T05:49:10.106Z,1002.26
2017-04-03T05:50:20.455Z,1002.32
2017-04-03T05:51:30.172Z,1002.21
2017-04-03T05:52:40.529Z,1002.22
2017-04-03T05:53:50.874Z,1002.23
2017-04-03T05:55:00.922Z,1002.27
2017-04-03T05:56:10.983Z,1002.31
2017-04-03T05:57:21.322Z,1002.31
2017-04-03T05:58:31.712Z,1002.31
2017-04-03T05:59:42.069Z,1002.3
2017-04-03T06:00:51.792Z,1002.34
2017-04-03T06:02:02.121Z,1002.32
2017-04-03T06:03:12.475Z,1002.31
2017-04-03T06:04:22.509Z,1002.33
2017-04-03T06:05:32.862Z,1002.36
2017-04-03T06:06:43.203Z,1002.37
2017-04-03T06:07:53.239Z,1002.34
2017-04-03T06:09:03.598Z,1002.37
2017-04-03T06:10:13.948Z,1002.39
2017-04-03T06:11:23.995Z,1002.37
2017-04-03T06:12:34.023Z,1002.4
2017-04-03T06:13:44.043Z,1002.42
2017-04-03T06:14:54.375Z,1002.49
2017-04-03T06:16:04.738Z,1002.44
2017-04-03T06:17:14.800Z,1002.5
2017-04-03T06:18:25.146Z,1002.47
2017-04-03T06:19:35.171Z,1002.5
2017-04-03T06:20:45.517Z,1002.53
2017-04-03T06:21:55.886Z,1002.55
2017-04-03T06:23:05.912Z,1002.57
2017-04-03T06:24:15.948Z,1002.59
2017-04-03T06:25:26.298Z,1002.61
2017-04-03T06:26:36.004Z,1002.61
2017-04-03T06:27:46.039Z,1002.62
2017-04-03T06:28:56.370Z,1002.62
2017-04-03T06:30:06.109Z,1002.58
2017-04-03T06:31:16.453Z,1002.7
2017-04-03T06:32:26.492Z,1002.63
2017-04-03T06:33:36.547Z,1002.68
2017-04-03T06:34:46.888Z,1002.68
2017-04-03T06:35:57.291Z,1002.73
2017-04-03T06:37:07.630Z,1002.75
2017-04-03T06:38:17.969Z,1002.8
2017-04-03T06:39:28.304Z,1002.75
2017-04-03T06:40:38.324Z,1002.79
2017-04-03T06:41:48.671Z,1002.84
2017-04-03T06:42:59.026Z,1002.84
2017-04-03T06:44:09.358Z,1002.83
2017-04-03T06:45:19.720Z,1002.87
2017-04-03T06:46:29.440Z,1002.79
2017-04-03T06:47:39.784Z,1002.82
2017-04-03T06:48:49.807Z,1002.75
2017-04-03T06:49:59.857Z,1002.77
2017-04-03T06:51:10.197Z,1002.78
2017-04-03T06:52:20.580Z,1002.8
2017-04-03T06:53:30.612Z,1002.76
2017-04-03T06:54:40.649Z,1002.78
2017-04-03T06:55:51.011Z,1002.79
2017-04-03T06:57:01.353Z,1002.82
2017-04-03T06:58:11.689Z,1002.81
2017-04-03T06:59:22.050Z,1002.9
2017-04-03T07:00:32.082Z,1002.86
2017-04-03T07:01:42.430Z,1002.88
2017-04-03T07:02:52.794Z,1002.9
2017-04-03T07:04:03.128Z,1002.89
2017-04-03T07:05:12.860Z,1002.92
2017-04-03T07:06:23.201Z,1002.92
2017-04-03T07:07:33.539Z,1002.91
2017-04-03T07:08:43.879Z,1002.9
2017-04-03T07:09:54.207Z,1002.97
2017-04-03T07:11:04.569Z,1002.93
2017-04-03T07:12:14.941Z,1002.94
2017-04-03T07:13:25.290Z,1002.96
2017-04-03T07:14:35.632Z,1002.91
2017-04-03T07:15:45.707Z,1002.93
2017-04-03T07:16:55.746Z,1002.97
2017-04-03T07:18:05.788Z,1002.97
2017-04-03T07:19:16.128Z,1002.95
2017-04-03T07:20:26.470Z,1003
2017-04-03T07:21:36.812Z,1002.97
2017-04-03T07:22:46.581Z,1002.98
2017-04-03T07:23:56.611Z,1002.98
2017-04-03T07:25:06.941Z,1002.97
2017-04-03T07:26:17.338Z,1003.03
2017-04-03T07:27:27.368Z,1003.03
2017-04-03T07:28:37.393Z,1003
2017-04-03T07:29:47.728Z,1003.01
2017-04-03T07:30:58.069Z,1002.98
2017-04-03T07:32:07.774Z,1003.04
2017-04-03T07:33:18.121Z,1003.01
2017-04-03T07:34:28.464Z,1003.02
2017-04-03T07:35:38.808Z,1003.05
2017-04-03T07:36:49.154Z,1003.04
2017-04-03T07:37:59.509Z,1003.08
2017-04-03T07:39:09.891Z,1003.04
2017-04-03T07:40:20.236Z,1003.06
2017-04-03T07:41:30.564Z,1003.03
2017-04-03T07:42:40.915Z,1003.02
2017-04-03T07:43:50.956Z,1003.02
2017-04-03T07:45:01.023Z,1002.98
2017-04-03T07:46:11.075Z,1002.97
2017-04-03T07:47:21.409Z,1003.01
2017-04-03T07:48:31.467Z,1003.05
2017-04-03T07:49:41.493Z,1002.99
2017-04-03T07:50:52.084Z,1003.03
2017-04-03T07:52:02.450Z,1003.03
2017-04-03T07:53:12.810Z,1003.08
2017-04-03T07:54:23.142Z,1003.09
2017-04-03T07:55:33.162Z,1003.07
2017-04-03T07:56:43.210Z,1003.03
2017-04-03T07:57:53.596Z,1003.03
2017-04-03T07:59:03.938Z,1003.05
2017-04-03T08:00:14.280Z,1003.03
2017-04-03T08:01:24.638Z,1003.05
2017-04-03T08:02:34.993Z,1003.11
2017-04-03T08:03:45.021Z,1003.16
2017-04-03T08:04:55.374Z,1003.1
2017-04-03T08:06:05.098Z,1003.1
2017-04-03T08:07:15.454Z,1003.09
2017-04-03T08:08:25.806Z,1003.07
2017-04-03T08:09:36.158Z,1003.07
2017-04-03T08:10:46.505Z,1003.08
2017-04-03T08:11:56.840Z,1003.08
2017-04-03T08:13:07.184Z,1003.04
2017-04-03T08:14:17.538Z,1003.05
2017-04-03T08:15:27.573Z,1003.02
2017-04-03T08:16:37.910Z,1003.03
2017-04-03T08:17:48.287Z,1003.04
2017-04-03T08:18:58.628Z,1002.98
2017-04-03T08:20:09.032Z,1003.06
2017-04-03T08:21:19.384Z,1003.04
2017-04-03T08:22:29.742Z,1003.03
2017-04-03T08:23:40.122Z,1003.04
2017-04-03T08:24:50.455Z,1003.04
2017-04-03T08:26:00.799Z,1003.03
2017-04-03T08:27:10.859Z,1003.08
2017-04-03T08:28:21.201Z,1003.05
2017-04-03T08:29:31.239Z,1003.03
2017-04-03T08:30:41.574Z,1003.01
2017-04-03T08:31:51.925Z,1003
2017-04-03T08:33:02.278Z,1002.99
2017-04-03T08:34:12.300Z,1003.05
2017-04-03T08:35:22.038Z,1003.04
2017-04-03T08:36:32.389Z,1003.01
2017-04-03T08:37:42.421Z,1003.01
2017-04-03T08:38:52.752Z,1003.02
2017-04-03T08:40:03.101Z,1002.98
2017-04-03T08:41:13.123Z,1003.02
2017-04-03T08:42:23.488Z,1003.01
2017-04-03T08:43:33.215Z,1002.99
2017-04-03T08:44:43.269Z,1003
2017-04-03T08:45:53.291Z,1003.03
2017-04-03T08:47:03.638Z,1003.03
2017-04-03T08:48:13.982Z,1003.02
2017-04-03T08:49:24.014Z,1003.01
2017-04-03T08:50:34.354Z,1003.05
2017-04-03T08:51:44.707Z,1003.06
2017-04-03T08:52:54.782Z,1003.07
2017-04-03T08:54:04.882Z,1003.06
2017-04-03T08:55:15.251Z,1003.03
2017-04-03T08:56:25.640Z,1002.98
2017-04-03T08:57:35.670Z,1003.01
2017-04-03T08:58:46.049Z,1003.01
2017-04-03T08:59:56.411Z,1003.06
2017-04-03T09:01:06.478Z,1003.03
2017-04-03T09:02:16.523Z,1003.02
2017-04-03T09:03:26.862Z,1003.05
2017-04-03T09:04:37.212Z,1003
2017-04-03T09:05:47.263Z,1003.05
2017-04-03T09:06:57.613Z,1003.05
2017-04-03T09:08:07.645Z,1003.07
2017-04-03T09:09:18.011Z,1003.1
2017-04-03T09:10:28.372Z,1003.01
2017-04-03T09:11:38.739Z,1003.05
2017-04-03T09:12:49.096Z,1003.09
2017-04-03T09:13:59.130Z,1003.09
2017-04-03T09:15:09.497Z,1003.05
2017-04-03T09:16:19.532Z,1003.07
2017-04-03T09:17:29.603Z,1003.06
2017-04-03T09:18:39.958Z,1003.09
2017-04-03T09:19:49.987Z,1003.11
2017-04-03T09:21:00.024Z,1003.03
2017-04-03T09:22:10.380Z,1003.01
2017-04-03T09:23:20.415Z,1003.05
2017-04-03T09:24:30.457Z,1003.03
2017-04-03T09:25:40.836Z,1002.93
2017-04-03T09:26:51.176Z,1002.95
2017-04-03T09:28:01.209Z,1002.99
2017-04-03T09:29:11.571Z,1002.97
2017-04-03T09:30:21.599Z,1002.96
2017-04-03T09:31:31.964Z,1003.02
2017-04-03T09:32:42.005Z,1002.93
2017-04-03T09:33:52.351Z,1003.02
2017-04-03T09:35:02.380Z,1002.95
2017-04-03T09:36:12.745Z,1002.97
2017-04-03T09:37:23.095Z,1002.95
2017-04-03T09:38:33.453Z,1002.94
2017-04-03T09:39:43.486Z,1002.97
2017-04-03T09:40:53.844Z,1002.91
2017-04-03T09:42:04.190Z,1002.92
2017-04-03T09:43:14.530Z,1002.96
2017-04-03T09:44:24.569Z,1002.92
2017-04-03T09:45:34.602Z,1002.88
2017-04-03T09:46:44.962Z,1002.95
2017-04-03T09:47:54.734Z,1002.92
2017-04-03T09:49:04.760Z,1002.91
2017-04-03T09:50:14.480Z,1002.93
2017-04-03T09:51:24.827Z,1002.88
2017-04-03T09:52:35.231Z,1002.88
2017-04-03T09:53:45.584Z,1002.91
2017-04-03T09:54:55.317Z,1002.91
2017-04-03T09:56:05.371Z,1002.9
2017-04-03T09:57:15.740Z,1002.85
2017-04-03T09:58:26.074Z,1002.91
2017-04-03T09:59:36.429Z,1002.85
2017-04-03T10:00:46.466Z,1002.92
2017-04-03T10:01:56.817Z,1002.9
2017-04-03T10:03:07.166Z,1002.84
2017-04-03T10:04:17.220Z,1002.88
2017-04-03T10:05:27.566Z,1002.88
2017-04-03T10:06:37.599Z,1002.84
2017-04-03T10:07:47.968Z,1002.82
2017-04-03T10:08:58.323Z,1002.8
2017-04-03T10:10:08.351Z,1002.78
2017-04-03T10:11:18.702Z,1002.8
2017-04-03T10:12:28.737Z,1002.79
2017-04-03T10:13:38.808Z,1002.79
2017-04-03T10:14:48.834Z,1002.74
2017-04-03T10:15:58.861Z,1002.7
2017-04-03T10:17:09.224Z,1002.73
2017-04-03T10:18:19.563Z,1002.71
2017-04-03T10:19:29.615Z,1002.69
2017-04-03T10:20:39.680Z,1002.71
2017-04-03T10:21:49.722Z,1002.71
2017-04-03T10:23:00.071Z,1002.7
2017-04-03T10:24:10.441Z,1002.7
2017-04-03T10:25:20.464Z,1002.72
2017-04-03T10:26:30.832Z,1002.75
2017-04-03T10:27:41.192Z,1002.68
2017-04-03T10:28:51.535Z,1002.72
2017-04-03T10:30:01.582Z,1002.64
2017-04-03T10:31:11.926Z,1002.59
2017-04-03T10:32:22.265Z,1002.59
2017-04-03T10:33:32.312Z,1002.65
2017-04-03T10:34:42.346Z,1002.67
2017-04-03T10:35:52.711Z,1002.61
2017-04-03T10:37:03.085Z,1002.62
2017-04-03T10:38:13.433Z,1002.59
2017-04-03T10:39:23.781Z,1002.62
2017-04-03T10:40:34.137Z,1002.56
2017-04-03T10:41:44.488Z,1002.61
2017-04-03T10:42:54.549Z,1002.63
2017-04-03T10:44:04.908Z,1002.53
2017-04-03T10:45:14.955Z,1002.57
2017-04-03T10:46:25.310Z,1002.62
2017-04-03T10:47:35.662Z,1002.61
2017-04-03T10:48:44.767Z,1002.51
2017-04-03T10:49:55.124Z,1002.47
2017-04-03T10:51:05.482Z,1002.51
2017-04-03T10:52:15.845Z,1002.49
2017-04-03T10:53:26.208Z,1002.46
2017-04-03T10:54:36.568Z,1002.44
2017-04-03T10:55:46.924Z,1002.58
2017-04-03T10:56:56.984Z,1002.47
2017-04-03T10:58:07.346Z,1002.52
2017-04-03T10:59:17.390Z,1002.45
2017-04-03T11:00:27.740Z,1002.49
2017-04-03T11:01:38.103Z,1002.48
2017-04-03T11:02:48.464Z,1002.47
2017-04-03T11:03:58.521Z,1002.45
2017-04-03T11:05:08.904Z,1002.43
2017-04-03T11:06:19.279Z,1002.47
2017-04-03T11:07:29.325Z,1002.51
2017-04-03T11:08:39.379Z,1002.43
2017-04-03T11:09:49.446Z,1002.41
2017-04-03T11:10:59.779Z,1002.38
2017-04-03T11:12:09.823Z,1002.39
2017-04-03T11:13:20.199Z,1002.35
2017-04-03T11:14:30.287Z,1002.34
2017-04-03T11:15:40.628Z,1002.37
2017-04-03T11:16:50.650Z,1002.43
2017-04-03T11:18:01.006Z,1002.34
2017-04-03T11:19:11.036Z,1002.28
2017-04-03T11:20:21.380Z,1002.39
2017-04-03T11:21:31.727Z,1002.25
2017-04-03T11:22:41.762Z,1002.23
2017-04-03T11:23:52.147Z,1002.23
2017-04-03T11:25:02.507Z,1002.25
2017-04-03T11:26:12.867Z,1002.22
2017-04-03T11:27:22.915Z,1002.21
2017-04-03T11:28:33.262Z,1002.23
2017-04-03T11:29:43.612Z,1002.27
2017-04-03T11:30:53.959Z,1002.22
2017-04-03T11:32:04.315Z,1002.24
2017-04-03T11:33:14.673Z,1002.14
2017-04-03T11:34:25.028Z,1002.16
2017-04-03T11:35:35.382Z,1002.18
2017-04-03T11:36:45.749Z,1002.16
2017-04-03T11:37:56.103Z,1002.12
2017-04-03T11:39:06.142Z,1002.07
2017-04-03T11:40:16.485Z,1002.07
2017-04-03T11:41:26.539Z,1002.07
2017-04-03T11:42:36.578Z,1002.06
2017-04-03T11:43:46.966Z,1002.02
2017-04-03T11:44:57.310Z,1002.07
2017-04-03T11:46:07.697Z,1002.05
2017-04-03T11:47:18.056Z,1002.04
2017-04-03T11:48:28.090Z,1002.02
2017-04-03T11:49:38.133Z,1002.05
2017-04-03T11:50:48.182Z,1002
2017-04-03T11:51:58.540Z,1001.96
2017-04-03T11:53:08.885Z,1002
2017-04-03T11:54:19.247Z,1002.02
2017-04-03T11:55:29.310Z,1001.98
2017-04-03T11:56:39.353Z,1001.94
2017-04-03T11:57:49.715Z,1001.98
2017-04-03T11:59:00.074Z,1001.98
2017-04-03T12:00:10.434Z,1001.94
2017-04-03T12:01:20.785Z,1001.9
2017-04-03T12:02:30.857Z,1001.86
2017-04-03T12:03:41.210Z,1001.87
2017-04-03T12:04:51.566Z,1001.84
2017-04-03T12:06:01.928Z,1001.82
2017-04-03T12:07:12.285Z,1001.82
2017-04-03T12:08:22.316Z,1001.85
2017-04-03T12:09:32.717Z,1001.77
2017-04-03T12:10:43.052Z,1001.86
2017-04-03T12:11:53.400Z,1001.68
2017-04-03T12:13:03.782Z,1001.81
2017-04-03T12:14:14.150Z,1001.77
2017-04-03T12:15:24.187Z,1001.73
2017-04-03T12:16:34.558Z,1001.72
2017-04-03T12:17:44.927Z,1001.68
2017-04-03T12:18:55.295Z,1001.73
2017-04-03T12:20:05.655Z,1001.7
2017-04-03T12:21:16.000Z,1001.65
2017-04-03T12:22:26.353Z,1001.66
2017-04-03T12:23:36.697Z,1001.64
2017-04-03T12:24:47.059Z,1001.66
2017-04-03T12:25:57.421Z,1001.61
2017-04-03T12:27:07.511Z,1001.6
2017-04-03T12:28:17.877Z,1001.57
2017-04-03T12:29:28.228Z,1001.6
2017-04-03T12:30:38.605Z,1001.55
2017-04-03T12:31:48.969Z,1001.58
2017-04-03T12:32:59.366Z,1001.52
2017-04-03T12:34:10.032Z,1001.6
2017-04-03T12:35:20.411Z,1001.51
2017-04-03T12:36:30.763Z,1001.54
2017-04-03T12:37:40.813Z,1001.54
2017-04-03T12:38:51.167Z,1001.51
2017-04-03T12:40:01.529Z,1001.51
2017-04-03T12:41:11.892Z,1001.5
2017-04-03T12:42:22.252Z,1001.54
2017-04-03T12:43:32.646Z,1001.49
2017-04-03T12:44:42.683Z,1001.5
2017-04-03T12:45:52.751Z,1001.43
2017-04-03T12:47:02.966Z,1001.38
2017-04-03T12:48:12.366Z,1001.35
2017-04-03T12:49:22.432Z,1001.38
2017-04-03T12:50:32.781Z,1001.27
2017-04-03T12:51:42.804Z,1001.28
2017-04-03T12:52:53.165Z,1001.21
2017-04-03T12:54:03.528Z,1001.23
2017-04-03T12:55:13.887Z,1001.21
2017-04-03T12:56:24.244Z,1001.19
2017-04-03T12:57:34.282Z,1001.2
2017-04-03T12:58:44.329Z,1001.18
2017-04-03T12:59:54.407Z,1001.19
2017-04-03T13:01:04.445Z,1001.19
2017-04-03T13:02:14.481Z,1001.17
2017-04-03T13:03:24.836Z,1001.2
2017-04-03T13:04:34.887Z,1001.18
2017-04-03T13:05:44.966Z,1001.17
2017-04-03T13:06:55.308Z,1001.16
2017-04-03T13:08:05.047Z,1001.17
2017-04-03T13:09:15.423Z,1001.08
2017-04-03T13:10:25.763Z,1001.07
2017-04-03T13:11:36.109Z,1001.12
2017-04-03T13:12:46.471Z,1001.1
2017-04-03T13:13:56.889Z,1001.02
2017-04-03T13:15:07.241Z,1001.07
2017-04-03T13:16:17.280Z,1001.19
2017-04-03T13:17:27.342Z,1001.07
2017-04-03T13:18:37.723Z,1001.05
2017-04-03T13:19:48.080Z,1000.94
2017-04-03T13:20:58.451Z,1000.9
2017-04-03T13:22:08.794Z,1000.98
2017-04-03T13:23:18.831Z,1001.01
2017-04-03T13:24:29.195Z,1001
2017-04-03T13:25:39.599Z,1000.97
2017-04-03T13:26:49.942Z,1001.02
2017-04-03T13:28:00.009Z,1001.01
2017-04-03T13:29:10.059Z,1000.94
2017-04-03T13:30:20.403Z,1000.96
2017-04-03T13:31:30.753Z,1000.98
2017-04-03T13:32:41.099Z,1001.01
2017-04-03T13:33:51.141Z,1000.99
2017-04-03T13:35:01.488Z,1000.9
2017-04-03T13:36:11.541Z,1000.88
2017-04-03T13:37:21.886Z,1000.89
2017-04-03T13:38:32.262Z,1000.91
2017-04-03T13:39:42.311Z,1000.87
2017-04-03T13:40:52.675Z,1000.84
2017-04-03T13:42:03.017Z,1000.9
2017-04-03T13:43:13.388Z,1000.94
2017-04-03T13:44:23.732Z,1000.92
2017-04-03T13:45:34.085Z,1000.91
2017-04-03T13:46:44.446Z,1000.85
2017-04-03T13:47:54.478Z,1000.85
2017-04-03T13:49:04.844Z,1000.9
2017-04-03T13:50:15.181Z,1000.89
2017-04-03T13:51:25.556Z,1000.89
2017-04-03T13:52:35.925Z,1000.94
2017-04-03T13:53:46.266Z,1000.85
2017-04-03T13:54:56.614Z,1000.86
2017-04-03T13:56:06.652Z,1000.84
2017-04-03T13:57:16.996Z,1000.8
2017-04-03T13:58:27.096Z,1000.77
2017-04-03T13:59:37.144Z,1000.82
2017-04-03T14:00:47.209Z,1000.77
2017-04-03T14:01:57.234Z,1000.77
2017-04-03T14:03:07.272Z,1000.8
2017-04-03T14:04:17.635Z,1000.83
2017-04-03T14:05:27.693Z,1000.82
2017-04-03T14:06:38.081Z,1000.76
2017-04-03T14:07:48.160Z,1000.72
2017-04-03T14:08:58.537Z,1000.7
2017-04-03T14:10:08.896Z,1000.69
2017-04-03T14:11:19.245Z,1000.74
2017-04-03T14:12:29.602Z,1000.72
2017-04-03T14:13:39.970Z,1000.71
2017-04-03T14:14:50.372Z,1000.74
2017-04-03T14:16:00.733Z,1000.72
2017-04-03T14:17:10.771Z,1000.72
2017-04-03T14:18:21.153Z,1000.74
2017-04-03T14:19:31.522Z,1000.67
2017-04-03T14:20:41.871Z,1000.64
2017-04-03T14:21:52.307Z,1000.66
2017-04-03T14:23:02.363Z,1000.66
2017-04-03T14:24:12.404Z,1000.63
2017-04-03T14:25:22.467Z,1000.61
2017-04-03T14:26:32.829Z,1000.57
2017-04-03T14:27:42.871Z,1000.64
2017-04-03T14:28:53.243Z,1000.63
2017-04-03T14:30:03.298Z,1000.52
2017-04-03T14:31:13.421Z,1000.54
2017-04-03T14:32:23.472Z,1000.52
2017-04-03T14:33:33.525Z,1000.52
2017-04-03T14:34:43.911Z,1000.53
2017-04-03T14:35:54.284Z,1000.49
2017-04-03T14:37:04.641Z,1000.48
2017-04-03T14:38:14.737Z,1000.53
2017-04-03T14:39:25.102Z,1000.52
2017-04-03T14:40:35.450Z,1000.5
2017-04-03T14:41:46.054Z,1000.49
2017-04-03T14:42:56.416Z,1000.52
2017-04-03T14:44:06.784Z,1000.46
2017-04-03T14:45:17.138Z,1000.46